Time;durP1;ratioP1;P1;durP2;ratioP2;P2;SDS_P1;SDS_P2;PMS_P1;PMS_P2;Temp;Humidity;BMP_temperature;BMP_pressure;BME280_temperature;BME280_humidity;BME280_pressure;Samples;Min_cycle;Max_cycle;Signal;HPM_P1;HPM_P2
2021/12/26 00:00:28;;;;;;;9.77;7.37;;;;;;;-0.27;100.00;99298.44;4991878;28;20336;-64
2021/12/26 00:02:54;;;;;;;7.97;7.17;;;;;;;-0.24;100.00;99290.81;5022804;28;20174;-64
2021/12/26 00:05:20;;;;;;;11.33;7.10;;;;;;;-0.20;100.00;99305.03;5007829;28;20812;-65
2021/12/26 00:07:46;;;;;;;9.23;7.10;;;;;;;-0.29;100.00;99302.72;5025251;28;20210;-64
2021/12/26 00:10:16;;;;;;;7.93;6.90;;;;;;;-0.33;100.00;99297.72;5001418;28;20268;-65
2021/12/26 00:12:42;;;;;;;8.27;6.77;;;;;;;-0.37;100.00;99296.16;5023220;28;20238;-64
2021/12/26 00:15:08;;;;;;;9.70;6.80;;;;;;;-0.43;100.00;99292.94;5000330;28;20252;-65
2021/12/26 00:17:34;;;;;;;7.50;6.77;;;;;;;-0.31;100.00;99294.34;5024416;28;20274;-65
2021/12/26 00:20:00;;;;;;;8.10;7.20;;;;;;;-0.33;100.00;99294.38;5008439;28;20666;-65
2021/12/26 00:22:25;;;;;;;9.70;7.57;;;;;;;-0.44;100.00;99294.63;5015902;28;20273;-65
2021/12/26 00:24:52;;;;;;;8.90;7.83;;;;;;;-0.43;100.00;99303.06;5009603;28;20190;-64
2021/12/26 00:27:19;;;;;;;6.93;6.23;;;;;;;-0.43;100.00;99293.75;5009739;28;20258;-65
2021/12/26 00:29:46;;;;;;;9.10;7.87;;;;;;;-0.39;100.00;99299.56;5009707;28;20268;-65
2021/12/26 00:32:11;;;;;;;8.57;7.67;;;;;;;-0.26;100.00;99298.44;4981074;28;20234;-65
2021/12/26 00:34:37;;;;;;;8.50;7.37;;;;;;;-0.27;100.00;99294.25;4974312;28;20179;-65
2021/12/26 00:37:06;;;;;;;8.57;7.50;;;;;;;-0.37;100.00;99288.56;5002456;28;20210;-65
2021/12/26 00:39:33;;;;;;;7.47;6.67;;;;;;;-0.52;100.00;99287.22;5011857;28;20183;-66
2021/12/26 00:41:58;;;;;;;8.77;7.70;;;;;;;-0.47;100.00;99284.59;5016571;28;20341;-65
2021/12/26 00:44:24;;;;;;;8.37;7.57;;;;;;;-0.46;100.00;99291.28;4992844;28;20212;-65
2021/12/26 00:46:53;;;;;;;8.77;7.63;;;;;;;-0.49;100.00;99294.72;5001568;28;20191;-65
2021/12/26 00:49:19;;;;;;;7.23;6.53;;;;;;;-0.54;100.00;99295.69;4997404;28;20187;-64
2021/12/26 00:51:44;;;;;;;8.20;7.07;;;;;;;-0.58;100.00;99292.41;5006814;28;20226;-65
2021/12/26 00:54:09;;;;;;;7.90;7.10;;;;;;;-0.58;100.00;99283.97;5012509;28;20194;-65
2021/12/26 00:56:35;;;;;;;9.17;7.27;;;;;;;-0.50;100.00;99287.19;5012649;28;20198;-65
2021/12/26 00:59:00;;;;;;;9.13;7.43;;;;;;;-0.54;100.00;99281.34;5011474;28;20279;-65
2021/12/26 01:01:25;;;;;;;8.83;7.80;;;;;;;-0.41;100.00;99278.56;5002637;28;20405;-66
2021/12/26 01:03:51;;;;;;;9.23;7.70;;;;;;;-0.30;100.00;99284.19;4983198;28;20733;-65
2021/12/26 01:06:16;;;;;;;9.10;7.77;;;;;;;-0.47;100.00;99271.13;5010759;28;20199;-65
2021/12/26 01:08:43;;;;;;;11.50;8.07;;;;;;;-0.46;100.00;99277.84;5004287;28;20191;-66
2021/12/26 01:11:20;;;;;;;9.07;7.63;;;;;;;-0.42;100.00;99287.84;5000442;28;20232;-65
2021/12/26 01:13:48;;;;;;;9.23;7.80;;;;;;;-0.42;100.00;99287.84;5011923;28;20186;-65
2021/12/26 01:16:14;;;;;;;8.40;7.33;;;;;;;-0.45;100.00;99284.56;5012313;28;20190;-65
2021/12/26 01:18:44;;;;;;;10.83;8.30;;;;;;;-0.31;99.95;99290.13;5012545;28;20208;-65
2021/12/26 01:21:19;;;;;;;8.73;7.90;;;;;;;-0.30;99.78;99294.31;5008551;28;20324;-65
2021/12/26 01:23:48;;;;;;;9.97;7.73;;;;;;;-0.27;99.54;99298.44;5010574;28;20265;-65
2021/12/26 01:26:13;;;;;;;12.00;8.33;;;;;;;-0.09;99.83;99297.22;5002202;28;20182;-65
2021/12/26 01:28:39;;;;;;;8.50;7.67;;;;;;;0.01;99.20;99301.16;5012356;28;20262;-66
2021/12/26 01:31:05;;;;;;;8.83;7.40;;;;;;;-0.03;97.74;99297.06;5009886;28;20256;-66
2021/12/26 01:33:30;;;;;;;8.70;7.60;;;;;;;-0.01;97.65;99297.88;5018999;28;20210;-66
2021/12/26 01:35:56;;;;;;;9.17;7.97;;;;;;;-0.09;97.64;99292.97;5011283;28;20244;-66
2021/12/26 01:38:21;;;;;;;8.73;7.83;;;;;;;-0.26;97.62;99295.06;5005906;28;20285;-65
2021/12/26 01:40:53;;;;;;;10.00;7.57;;;;;;;-0.18;98.84;99285.63;4989184;28;20327;-65
2021/12/26 01:43:21;;;;;;;9.07;7.93;;;;;;;-0.32;99.23;99288.47;5014122;28;20175;-65
2021/12/26 01:45:47;;;;;;;9.63;8.53;;;;;;;-0.31;98.95;99295.19;5010418;28;20179;-66
2021/12/26 01:48:13;;;;;;;8.73;7.83;;;;;;;-0.32;99.03;99283.41;5011390;28;20203;-65
2021/12/26 01:50:39;;;;;;;10.10;8.50;;;;;;;-0.24;99.57;99288.28;4999245;28;20224;-65
2021/12/26 01:53:06;;;;;;;8.97;7.93;;;;;;;-0.33;99.50;99285.09;4994105;28;20204;-65
2021/12/26 01:55:44;;;;;;;8.50;7.63;;;;;;;-0.42;99.83;99289.53;5002983;28;20630;-64
2021/12/26 01:58:25;;;;;;;9.00;8.10;;;;;;;-0.41;99.62;99287.00;5009594;28;20318;-65
2021/12/26 02:00:56;;;;;;;8.83;7.77;;;;;;;-0.38;99.00;99289.44;5002781;28;20252;-65
2021/12/26 02:03:23;;;;;;;9.23;8.33;;;;;;;-0.42;99.33;99285.31;4990062;28;20199;-66
2021/12/26 02:05:48;;;;;;;8.97;8.07;;;;;;;-0.40;99.68;99290.34;4991065;28;20214;-66
2021/12/26 02:08:14;;;;;;;10.07;8.20;;;;;;;-0.41;99.76;99291.19;5011466;28;20276;-65
2021/12/26 02:10:40;;;;;;;8.57;7.57;;;;;;;-0.38;100.00;99294.47;4985793;28;20227;-65
2021/12/26 02:13:06;;;;;;;10.07;8.60;;;;;;;-0.57;100.00;99290.69;5005204;28;20209;-65
2021/12/26 02:15:31;;;;;;;9.43;7.43;;;;;;;-0.66;100.00;99289.19;5012082;28;20256;-65
2021/12/26 02:17:57;;;;;;;10.10;9.10;;;;;;;-0.59;100.00;99298.31;5011112;28;20206;-65
2021/12/26 02:20:37;;;;;;;9.53;7.93;;;;;;;-0.63;100.00;99288.31;5004158;28;20613;-66
2021/12/26 02:23:12;;;;;;;10.60;8.10;;;;;;;-0.67;100.00;99285.00;5015012;28;20233;-65
2021/12/26 02:28:09;;;;;;;11.57;8.93;;;;;;;-0.66;100.00;99284.16;5011239;28;20211;-65
2021/12/26 02:30:34;;;;;;;10.53;8.30;;;;;;;-0.69;100.00;99280.00;5005058;28;20344;-65
2021/12/26 02:33:03;;;;;;;11.27;9.37;;;;;;;-0.65;100.00;99288.34;5011510;28;20269;-65
2021/12/26 02:35:29;;;;;;;10.97;9.33;;;;;;;-0.69;100.00;99282.53;4992035;28;20191;-64
2021/12/26 02:37:55;;;;;;;10.20;8.63;;;;;;;-0.67;100.00;99285.00;5010982;28;20201;-65
2021/12/26 02:40:20;;;;;;;10.27;8.80;;;;;;;-0.61;100.00;99284.06;5002993;28;20181;-65
2021/12/26 02:42:46;;;;;;;12.13;9.23;;;;;;;-0.60;100.00;99288.25;5023366;28;20174;-65
2021/12/26 02:45:12;;;;;;;9.90;8.50;;;;;;;-0.51;100.00;99286.34;5009739;28;20280;-65
2021/12/26 02:47:48;;;;;;;10.27;9.13;;;;;;;-0.48;100.00;99277.88;5000689;28;20250;-65
2021/12/26 02:50:20;;;;;;;13.63;9.77;;;;;;;-0.58;100.00;99278.94;4984480;28;20256;-64
2021/12/26 02:52:46;;;;;;;11.63;9.67;;;;;;;-0.49;100.00;99274.50;5022815;28;20202;-65
2021/12/26 02:55:14;;;;;;;11.93;9.57;;;;;;;-0.49;100.00;99263.56;5009077;28;20182;-65
2021/12/26 02:57:39;;;;;;;10.97;9.63;;;;;;;-0.56;100.00;99264.56;5010821;28;20241;-65
2021/12/26 03:00:12;;;;;;;14.17;10.37;;;;;;;-0.57;100.00;99271.34;4999591;28;20652;-64
2021/12/26 03:02:42;;;;;;;10.33;9.13;;;;;;;-0.55;100.00;99272.13;5024512;28;20163;-65
2021/12/26 03:05:07;;;;;;;11.17;9.40;;;;;;;-0.46;100.00;99263.50;5010510;28;20195;-65
2021/12/26 03:07:33;;;;;;;11.03;9.17;;;;;;;-0.39;100.00;99266.72;5010552;28;20691;-66
2021/12/26 03:10:00;;;;;;;12.33;10.07;;;;;;;-0.42;100.00;99267.63;5010616;28;20185;-65
2021/12/26 03:12:28;;;;;;;13.23;10.93;;;;;;;-0.34;100.00;99265.75;5015737;28;20321;-64
2021/12/26 03:14:53;;;;;;;11.13;9.53;;;;;;;-0.55;100.00;99259.47;5010311;28;20175;-65
2021/12/26 03:17:19;;;;;;;10.53;9.43;;;;;;;-0.32;100.00;99275.84;5010520;28;20808;-65
2021/12/26 03:19:44;;;;;;;12.03;10.00;;;;;;;-0.33;100.00;99259.00;5009151;28;20232;-66
2021/12/26 03:22:10;;;;;;;12.10;9.83;;;;;;;-0.42;100.00;99259.19;5015700;28;20717;-65
2021/12/26 03:24:37;;;;;;;10.17;8.70;;;;;;;-0.45;100.00;99267.69;5010221;28;20202;-66
2021/12/26 03:27:05;;;;;;;11.47;10.27;;;;;;;-0.45;100.00;99252.53;5010132;28;20216;-66
2021/12/26 03:29:31;;;;;;;10.80;9.70;;;;;;;-0.37;100.00;99244.78;5010278;28;20213;-65
2021/12/26 03:31:56;;;;;;;12.47;9.70;;;;;;;-0.37;100.00;99253.19;5014374;28;20233;-65
2021/12/26 03:34:22;;;;;;;12.53;9.50;;;;;;;-0.33;100.00;99257.28;5010781;28;20174;-65
2021/12/26 03:36:51;;;;;;;12.13;9.90;;;;;;;-0.37;100.00;99259.94;5010146;28;20312;-65
2021/12/26 03:39:18;;;;;;;10.57;9.37;;;;;;;-0.30;99.30;99255.56;5010331;28;20619;-65
2021/12/26 03:41:43;;;;;;;12.70;10.50;;;;;;;-0.34;99.40;99255.63;5002117;28;20291;-66
2021/12/26 03:44:09;;;;;;;11.20;10.00;;;;;;;-0.37;99.00;99265.81;5012155;28;20179;-65
2021/12/26 03:46:34;;;;;;;10.40;9.30;;;;;;;-0.42;99.00;99266.78;5010007;28;20248;-66
2021/12/26 03:49:04;;;;;;;11.20;10.07;;;;;;;-0.36;99.44;99270.03;5010308;28;20170;-66
2021/12/26 03:51:29;;;;;;;10.47;9.37;;;;;;;-0.34;99.48;99258.16;5011216;28;20226;-66
2021/12/26 03:53:55;;;;;;;11.83;10.23;;;;;;;-0.43;99.12;99263.44;5014005;28;20254;-66
2021/12/26 03:56:20;;;;;;;11.27;9.10;;;;;;;-0.38;99.32;99268.41;5010073;28;20178;-66
2021/12/26 03:58:45;;;;;;;13.30;9.87;;;;;;;-0.39;99.12;99269.25;5010019;28;20198;-66
2021/12/26 04:01:11;;;;;;;11.60;9.60;;;;;;;-0.39;99.43;99271.78;4998357;28;20226;-66
2021/12/26 04:03:36;;;;;;;13.83;9.63;;;;;;;-0.46;99.18;99270.25;5016130;28;20167;-66
2021/12/26 04:06:02;;;;;;;12.10;9.33;;;;;;;-0.47;99.09;99266.06;5013627;28;20208;-66
2021/12/26 04:08:27;;;;;;;13.27;10.67;;;;;;;-0.43;99.23;99267.69;5013894;28;20190;-65
2021/12/26 04:10:53;;;;;;;11.60;10.00;;;;;;;-0.39;99.00;99271.78;5005696;28;20238;-66
2021/12/26 04:13:18;;;;;;;10.47;9.37;;;;;;;-0.28;99.32;99264.78;5022205;28;20194;-66
2021/12/26 04:15:44;;;;;;;11.03;9.67;;;;;;;-0.35;99.11;99270.84;5008831;28;20733;-66
2021/12/26 04:18:09;;;;;;;12.20;9.73;;;;;;;-0.32;99.02;99263.19;5023669;28;20197;-64
2021/12/26 04:20:35;;;;;;;11.63;10.10;;;;;;;-0.37;98.99;99270.06;5007958;28;20222;-66
2021/12/26 04:23:00;;;;;;;12.03;10.13;;;;;;;-0.30;98.64;99263.16;5024507;28;20253;-65
2021/12/26 04:25:26;;;;;;;11.23;9.10;;;;;;;-0.24;98.68;99273.13;5013350;28;20193;-65
2021/12/26 04:27:51;;;;;;;10.30;9.03;;;;;;;-0.39;98.17;99269.25;5013447;28;20616;-65
2021/12/26 04:30:19;;;;;;;12.57;10.37;;;;;;;-0.35;98.39;99266.63;4983721;28;20203;-65
2021/12/26 04:32:44;;;;;;;13.00;9.97;;;;;;;-0.36;98.41;99270.03;5026541;28;20203;-65
2021/12/26 04:35:10;;;;;;;11.90;10.00;;;;;;;-0.36;98.37;99271.69;5013532;28;20248;-66
2021/12/26 04:37:36;;;;;;;13.07;10.30;;;;;;;-0.42;98.54;99266.78;5013274;28;20187;-66
2021/12/26 04:40:05;;;;;;;11.87;10.40;;;;;;;-0.33;98.35;99254.78;5013419;28;20270;-65
2021/12/26 04:42:30;;;;;;;9.57;8.57;;;;;;;-0.46;97.89;99258.44;5001945;28;20215;-66
2021/12/26 04:44:55;;;;;;;12.83;9.30;;;;;;;-0.57;99.01;99265.44;5012963;28;20213;-65
2021/12/26 04:47:21;;;;;;;15.53;11.40;;;;;;;-0.50;99.40;99265.28;5013120;28;20603;-65
2021/12/26 04:49:46;;;;;;;12.70;10.43;;;;;;;-0.50;99.41;99261.91;5013179;28;20178;-65
2021/12/26 04:52:12;;;;;;;13.17;10.07;;;;;;;-0.53;99.34;99269.56;5018375;28;20238;-66
2021/12/26 04:54:37;;;;;;;12.57;10.40;;;;;;;-0.43;99.15;99268.50;5012973;28;20174;-66
2021/12/26 04:57:03;;;;;;;12.33;11.03;;;;;;;-0.37;98.85;99265.00;5012797;28;20197;-66
2021/12/26 04:59:28;;;;;;;10.97;9.70;;;;;;;-0.50;98.77;99262.75;5012893;28;20265;-65
2021/12/26 05:01:54;;;;;;;12.63;10.37;;;;;;;-0.55;98.80;99262.00;5017145;28;20325;-65
2021/12/26 05:04:20;;;;;;;12.27;10.97;;;;;;;-0.51;99.51;99262.78;5003076;28;20197;-65
2021/12/26 05:06:47;;;;;;;13.50;10.37;;;;;;;-0.50;99.49;99257.72;5013056;28;20285;-65
2021/12/26 05:09:14;;;;;;;14.13;10.80;;;;;;;-0.55;99.41;99269.59;5013648;28;20186;-66
2021/12/26 05:11:39;;;;;;;12.30;10.40;;;;;;;-0.54;99.67;99263.69;5012956;28;20226;-66
2021/12/26 05:14:05;;;;;;;13.03;10.73;;;;;;;-0.62;99.46;99269.75;5008132;28;20186;-65
2021/12/26 05:16:30;;;;;;;13.03;10.63;;;;;;;-0.61;99.93;99272.25;5010685;28;20244;-64
2021/12/26 05:18:56;;;;;;;12.73;9.87;;;;;;;-0.63;99.52;99276.53;5012477;28;20178;-67
2021/12/26 05:21:21;;;;;;;12.20;10.43;;;;;;;-0.57;99.95;99278.06;5023366;28;20244;-65
2021/12/26 05:23:46;;;;;;;12.33;10.30;;;;;;;-0.59;99.42;99273.06;5018712;28;20518;-66
2021/12/26 05:26:12;;;;;;;11.80;10.13;;;;;;;-0.70;100.00;99263.19;5012003;28;20179;-66
2021/12/26 05:28:37;;;;;;;11.83;10.20;;;;;;;-0.63;100.00;99268.09;5012368;28;20175;-65
2021/12/26 05:31:02;;;;;;;12.50;10.43;;;;;;;-0.60;100.00;99261.28;5009889;28;20295;-65
2021/12/26 05:33:28;;;;;;;13.43;10.73;;;;;;;-0.59;100.00;99257.09;5019506;28;20228;-66
2021/12/26 05:35:53;;;;;;;12.50;9.60;;;;;;;-0.61;99.87;99256.28;5012106;28;20179;-65
2021/12/26 05:38:19;;;;;;;10.90;9.47;;;;;;;-0.61;99.86;99259.63;5012087;28;20244;-64
2021/12/26 05:40:44;;;;;;;11.63;10.10;;;;;;;-0.57;100.00;99251.13;5007644;28;20237;-65
2021/12/26 05:43:10;;;;;;;13.50;10.50;;;;;;;-0.55;100.00;99254.44;5010329;28;20174;-64
2021/12/26 05:45:35;;;;;;;13.40;10.70;;;;;;;-0.45;99.37;99256.75;5011098;28;20174;-66
2021/12/26 05:48:00;;;;;;;12.67;10.83;;;;;;;-0.47;99.25;99263.53;5011676;28;20190;-65
2021/12/26 05:50:26;;;;;;;14.00;10.73;;;;;;;-0.54;99.00;99261.16;5004965;28;20229;-65
2021/12/26 05:52:52;;;;;;;12.90;11.03;;;;;;;-0.60;99.32;99258.75;5023951;28;20200;-65
2021/12/26 05:55:18;;;;;;;11.50;10.30;;;;;;;-0.55;99.84;99263.72;5011626;28;20198;-65
2021/12/26 05:57:43;;;;;;;11.73;9.90;;;;;;;-0.42;99.86;99264.25;5011413;28;20289;-66
2021/12/26 06:00:12;;;;;;;10.37;9.17;;;;;;;-0.38;98.61;99261.63;5002398;28;20208;-66
2021/12/26 06:02:38;;;;;;;13.17;11.10;;;;;;;-0.49;98.91;99266.09;5025366;28;20170;-65
2021/12/26 06:05:03;;;;;;;11.80;9.60;;;;;;;-0.58;99.50;99259.56;5011246;28;20175;-65
2021/12/26 06:07:29;;;;;;;12.67;9.97;;;;;;;-0.55;99.72;99262.00;5011675;28;20191;-66
2021/12/26 06:09:54;;;;;;;16.47;10.90;;;;;;;-0.47;100.00;99255.97;5011453;28;20238;-66
2021/12/26 06:12:19;;;;;;;12.87;10.33;;;;;;;-0.47;99.75;99246.69;5016406;28;20253;-65
2021/12/26 06:14:45;;;;;;;13.97;10.63;;;;;;;-0.49;99.74;99254.28;5009768;28;20204;-65
2021/12/26 06:17:10;;;;;;;11.70;10.50;;;;;;;-0.53;99.38;99257.75;5011398;28;20198;-67
2021/12/26 06:19:35;;;;;;;14.73;10.00;;;;;;;-0.51;99.87;99260.25;5011453;28;20178;-66
2021/12/26 06:22:02;;;;;;;12.37;10.63;;;;;;;-0.54;100.00;99262.84;5016226;28;20222;-65
2021/12/26 06:24:29;;;;;;;13.97;10.70;;;;;;;-0.61;100.00;99267.19;5010946;28;20175;-65
2021/12/26 06:26:54;;;;;;;13.17;10.07;;;;;;;-0.58;100.00;99259.56;5010307;28;20209;-66
2021/12/26 06:29:19;;;;;;;12.93;10.33;;;;;;;-0.65;100.00;99250.47;5011068;28;20516;-64
2021/12/26 06:31:45;;;;;;;13.97;10.93;;;;;;;-0.65;100.00;99258.03;5013961;28;20564;-64
2021/12/26 06:34:10;;;;;;;11.63;10.07;;;;;;;-0.63;100.00;99263.03;5013035;28;20178;-64
2021/12/26 06:36:35;;;;;;;12.27;10.90;;;;;;;-0.59;100.00;99257.91;5011061;28;20244;-64
2021/12/26 06:39:01;;;;;;;12.30;10.87;;;;;;;-0.53;100.00;99264.53;5011014;28;20189;-65
2021/12/26 06:41:26;;;;;;;12.43;11.03;;;;;;;-0.50;100.00;99265.28;4986254;28;20226;-66
2021/12/26 06:43:52;;;;;;;13.07;11.13;;;;;;;-0.49;100.00;99259.34;4994938;28;20175;-66
2021/12/26 06:46:18;;;;;;;12.43;10.83;;;;;;;-0.36;100.00;99261.59;4990009;28;20182;-66
2021/12/26 06:48:44;;;;;;;12.80;9.90;;;;;;;-0.50;100.00;99260.22;4991362;28;20640;-66
2021/12/26 06:51:09;;;;;;;15.30;10.43;;;;;;;-0.43;100.00;99262.63;4998872;28;20226;-65
2021/12/26 06:53:34;;;;;;;13.20;10.80;;;;;;;-0.52;100.00;99261.09;5017402;28;20226;-68
2021/12/26 06:56:00;;;;;;;13.43;10.90;;;;;;;-0.45;100.00;99251.72;5010854;28;20654;-65
2021/12/26 06:58:25;;;;;;;14.40;11.30;;;;;;;-0.43;100.00;99250.00;5010762;28;20230;-65
2021/12/26 07:00:51;;;;;;;13.80;10.70;;;;;;;-0.46;100.00;99258.44;5006997;28;20236;-65
2021/12/26 07:03:16;;;;;;;12.67;10.60;;;;;;;-0.42;100.00;99255.00;5009316;28;20209;-65
2021/12/26 07:05:42;;;;;;;13.17;10.83;;;;;;;-0.43;100.00;99255.03;5010593;28;20186;-64
2021/12/26 07:08:07;;;;;;;13.17;10.73;;;;;;;-0.51;100.00;99255.19;5009498;28;20756;-65
2021/12/26 07:10:33;;;;;;;13.30;10.53;;;;;;;-0.58;100.00;99257.03;5004389;28;20238;-65
2021/12/26 07:12:58;;;;;;;12.90;11.23;;;;;;;-0.54;100.00;99258.63;5009337;28;20209;-65
2021/12/26 07:15:24;;;;;;;14.80;12.00;;;;;;;-0.56;100.00;99251.94;5008894;28;20223;-64
2021/12/26 07:17:49;;;;;;;14.43;11.20;;;;;;;-0.62;100.00;99260.50;5010741;28;20266;-65
2021/12/26 07:20:15;;;;;;;14.20;10.90;;;;;;;-0.55;100.00;99258.66;5000826;28;20173;-66
2021/12/26 07:22:43;;;;;;;13.97;11.40;;;;;;;-0.63;100.00;99263.88;5023918;28;20162;-66
2021/12/26 07:25:09;;;;;;;15.23;11.23;;;;;;;-0.70;100.00;99272.47;5009813;28;20265;-67
2021/12/26 07:27:35;;;;;;;14.10;11.27;;;;;;;-0.69;100.00;99271.59;5010123;28;20205;-67
2021/12/26 07:30:03;;;;;;;13.50;10.90;;;;;;;-0.66;100.00;99279.09;5010130;28;20292;-65
2021/12/26 07:32:29;;;;;;;14.77;11.60;;;;;;;-0.58;100.00;99276.41;4998839;28;20281;-66
2021/12/26 07:34:54;;;;;;;14.50;10.60;;;;;;;-0.60;100.00;99275.63;5008495;28;20177;-64
2021/12/26 07:37:20;;;;;;;13.37;10.83;;;;;;;-0.60;100.00;99280.69;5009608;28;20274;-67
2021/12/26 07:39:46;;;;;;;12.67;10.63;;;;;;;-0.47;100.00;99281.22;5010981;28;20183;-67
2021/12/26 07:42:11;;;;;;;13.07;11.03;;;;;;;-0.60;100.00;99284.03;5026472;28;20230;-65
2021/12/26 07:44:37;;;;;;;13.50;10.20;;;;;;;-0.70;100.00;99288.44;5014208;28;20683;-67
2021/12/26 07:47:04;;;;;;;15.13;11.27;;;;;;;-0.59;100.00;99287.41;5013641;28;20686;-64
2021/12/26 07:49:29;;;;;;;14.17;10.80;;;;;;;-0.68;100.00;99286.72;5012883;28;20225;-64
2021/12/26 07:51:56;;;;;;;13.90;11.20;;;;;;;-0.62;100.00;99297.53;5017112;28;20221;-65
2021/12/26 07:54:23;;;;;;;15.43;11.87;;;;;;;-0.67;100.00;99293.44;5014982;28;20715;-66
2021/12/26 07:56:49;;;;;;;13.23;11.50;;;;;;;-0.68;100.00;99293.47;5018554;28;20280;-65
2021/12/26 07:59:15;;;;;;;14.27;11.70;;;;;;;-0.76;100.00;99295.31;5017079;28;20663;-64
2021/12/26 08:01:40;;;;;;;13.63;11.10;;;;;;;-0.76;100.00;99295.31;4988983;28;20237;-65
2021/12/26 08:04:09;;;;;;;12.77;10.10;;;;;;;-0.92;100.00;99298.16;5007963;28;20198;-65
2021/12/26 08:06:34;;;;;;;14.30;11.03;;;;;;;-0.92;100.00;99298.16;5015595;28;20194;-66
2021/12/26 08:09:00;;;;;;;14.63;11.33;;;;;;;-0.94;100.00;99289.78;5020138;28;20180;-67
2021/12/26 08:11:25;;;;;;;15.10;11.23;;;;;;;-0.87;100.00;99290.50;5007921;28;20216;-66
2021/12/26 08:13:51;;;;;;;14.83;12.17;;;;;;;-0.96;100.00;99293.22;5026366;28;20324;-66
2021/12/26 08:16:16;;;;;;;14.53;11.60;;;;;;;-0.88;100.00;99298.91;5028930;28;20294;-66
2021/12/26 08:18:42;;;;;;;14.30;11.77;;;;;;;-0.86;100.00;99300.56;5032174;28;20170;-66
2021/12/26 08:21:08;;;;;;;14.40;11.27;;;;;;;-0.90;100.00;99304.00;5031595;28;20289;-66
2021/12/26 08:23:34;;;;;;;15.87;12.10;;;;;;;-0.87;100.00;99309.00;5022968;28;20178;-65
2021/12/26 08:26:00;;;;;;;15.10;12.10;;;;;;;-0.80;100.00;99306.38;5011697;28;20166;-65
2021/12/26 08:28:26;;;;;;;15.17;12.43;;;;;;;-0.98;100.00;99305.84;5013376;28;20212;-65
2021/12/26 08:30:52;;;;;;;14.30;11.87;;;;;;;-1.00;100.00;99302.53;4988667;28;20217;-69
2021/12/26 08:33:17;;;;;;;14.80;12.20;;;;;;;-0.89;100.00;99299.81;5022469;28;20202;-65
2021/12/26 08:35:45;;;;;;;14.97;11.80;;;;;;;-0.86;100.00;99295.50;5013185;28;20176;-66
2021/12/26 08:38:13;;;;;;;14.93;11.87;;;;;;;-0.79;100.00;99292.84;5013017;28;20189;-65
2021/12/26 08:40:38;;;;;;;15.57;12.27;;;;;;;-0.78;100.00;99290.31;5008032;28;20228;-66
2021/12/26 08:43:04;;;;;;;15.50;11.90;;;;;;;-0.82;100.00;99288.69;5023512;28;20171;-66
2021/12/26 08:45:29;;;;;;;13.43;11.40;;;;;;;-0.83;100.00;99284.53;5012927;28;20662;-65
2021/12/26 08:47:55;;;;;;;16.90;11.90;;;;;;;-0.77;100.00;99289.47;5013108;28;20662;-65
2021/12/26 08:50:24;;;;;;;17.20;11.33;;;;;;;-0.82;100.00;99283.66;5003362;28;20256;-66
2021/12/26 08:52:49;;;;;;;13.70;10.87;;;;;;;-0.87;100.00;99286.28;5025398;28;20202;-64
2021/12/26 08:55:15;;;;;;;13.07;11.33;;;;;;;-0.77;100.00;99299.56;5013099;28;20173;-65
2021/12/26 08:57:41;;;;;;;13.90;10.10;;;;;;;-0.83;100.00;99295.44;5012886;28;20532;-66
2021/12/26 09:00:10;;;;;;;15.90;12.20;;;;;;;-0.83;100.00;99297.16;5003573;28;20224;-66
2021/12/26 09:02:35;;;;;;;14.60;11.03;;;;;;;-0.74;100.00;99301.19;5027148;28;20536;-65
2021/12/26 09:05:01;;;;;;;14.23;11.20;;;;;;;-0.84;100.00;99293.78;5012383;28;20179;-65
2021/12/26 09:07:28;;;;;;;14.67;11.70;;;;;;;-0.89;100.00;99293.06;5012745;28;20265;-66
2021/12/26 09:09:57;;;;;;;15.87;12.73;;;;;;;-0.87;100.00;99291.34;5012945;28;20497;-66
2021/12/26 09:12:23;;;;;;;16.53;12.00;;;;;;;-0.80;100.00;99301.31;5018075;28;20311;-66
2021/12/26 09:14:48;;;;;;;15.63;11.90;;;;;;;-0.79;100.00;99302.94;5012424;28;20275;-66
2021/12/26 09:17:14;;;;;;;15.30;12.20;;;;;;;-0.80;100.00;99311.41;5012580;28;20240;-65
2021/12/26 09:19:39;;;;;;;16.87;11.33;;;;;;;-0.75;100.00;99305.38;5010999;28;20177;-65
2021/12/26 09:22:07;;;;;;;17.00;11.97;;;;;;;-0.74;100.00;99307.06;5017730;28;20209;-66
2021/12/26 09:24:34;;;;;;;17.00;12.03;;;;;;;-0.53;100.00;99307.47;5012506;28;20177;-65
2021/12/26 09:27:02;;;;;;;16.07;12.57;;;;;;;-0.55;100.00;99309.19;5012228;28;20531;-65
2021/12/26 09:29:28;;;;;;;16.40;11.67;;;;;;;-0.69;100.00;99317.88;5012046;28;20167;-65
2021/12/26 09:31:54;;;;;;;15.20;12.50;;;;;;;-0.69;100.00;99322.13;5016246;28;20680;-65
2021/12/26 09:34:20;;;;;;;16.97;12.90;;;;;;;-0.69;100.00;99317.06;5010552;28;20178;-66
2021/12/26 09:36:46;;;;;;;16.23;11.67;;;;;;;-0.66;100.00;99319.50;5010650;28;20277;-66
2021/12/26 09:39:12;;;;;;;16.30;13.17;;;;;;;-0.53;100.00;99315.88;5012054;28;20269;-66
2021/12/26 09:41:38;;;;;;;14.83;12.17;;;;;;;-0.57;100.00;99321.00;5014118;28;20231;-66
2021/12/26 09:44:04;;;;;;;14.77;11.67;;;;;;;-0.61;100.00;99321.94;5014676;28;20181;-66
2021/12/26 09:46:31;;;;;;;16.63;11.73;;;;;;;-0.56;100.00;99317.63;5011830;28;20180;-64
2021/12/26 09:48:57;;;;;;;17.07;12.97;;;;;;;-0.50;100.00;99320.03;5011677;28;20561;-65
2021/12/26 09:51:22;;;;;;;14.73;12.33;;;;;;;-0.40;100.00;99321.47;5011962;28;20712;-66
2021/12/26 09:53:48;;;;;;;16.07;12.63;;;;;;;-0.49;100.00;99316.63;5016502;28;20206;-64
2021/12/26 09:56:14;;;;;;;15.13;12.30;;;;;;;-0.54;100.00;99319.25;5011697;28;20184;-65
2021/12/26 09:58:55;;;;;;;14.70;11.77;;;;;;;-0.61;100.00;99307.63;5011554;28;20163;-65
2021/12/26 10:01:39;;;;;;;16.87;12.87;;;;;;;-0.61;100.00;99301.75;5011171;28;20257;-66
2021/12/26 10:04:26;;;;;;;18.50;13.77;;;;;;;-0.63;100.00;99296.72;5009506;28;20244;-65
2021/12/26 10:06:56;;;;;;;16.67;12.67;;;;;;;-0.53;100.00;99303.25;5011292;28;20190;-66
2021/12/26 10:09:22;;;;;;;20.43;14.13;;;;;;;-0.52;100.00;99306.59;5011474;28;20199;-65
2021/12/26 10:11:51;;;;;;;16.03;13.07;;;;;;;-0.40;100.00;99302.97;5014429;28;20255;-64
2021/12/26 10:14:19;;;;;;;15.60;12.40;;;;;;;-0.51;100.00;99299.00;5012270;28;20175;-64
2021/12/26 10:16:51;;;;;;;21.10;15.03;;;;;;;-0.58;100.00;99294.09;5011314;28;20738;-64
2021/12/26 10:19:17;;;;;;;19.60;14.50;;;;;;;-0.66;100.00;99294.25;5011328;28;20223;-63
2021/12/26 10:22:01;;;;;;;14.97;13.27;;;;;;;-0.72;100.00;99299.44;5013920;28;20224;-63
2021/12/26 10:24:36;;;;;;;18.30;13.47;;;;;;;-0.72;100.00;99296.91;5010995;28;20185;-64
2021/12/26 10:27:06;;;;;;;17.03;13.50;;;;;;;-0.74;100.00;99289.38;5010934;28;20221;-63
2021/12/26 10:29:42;;;;;;;20.37;13.53;;;;;;;-0.59;100.00;99289.91;5009487;28;20180;-65
2021/12/26 10:32:19;;;;;;;17.30;13.47;;;;;;;-0.59;100.00;99290.75;5016382;28;20313;-65
2021/12/26 10:35:04;;;;;;;16.93;12.80;;;;;;;-0.71;100.00;99293.53;5010911;28;20684;-63
2021/12/26 10:37:34;;;;;;;17.67;15.00;;;;;;;-0.74;100.00;99284.31;5011323;28;20197;-63
2021/12/26 10:40:13;;;;;;;19.97;15.63;;;;;;;-0.65;100.00;99284.09;5010879;28;20326;-64
2021/12/26 10:42:50;;;;;;;21.23;15.87;;;;;;;-0.62;100.00;99278.19;4999809;28;20221;-64
2021/12/26 10:45:19;;;;;;;24.47;15.63;;;;;;;-0.54;100.00;99271.25;5009156;28;20225;-65
2021/12/26 10:47:49;;;;;;;18.53;14.70;;;;;;;-0.37;100.00;99275.94;5009165;28;20572;-64
2021/12/26 10:50:19;;;;;;;17.03;13.73;;;;;;;-0.47;100.00;99271.97;5002355;28;20191;-64
2021/12/26 10:52:59;;;;;;;18.77;14.53;;;;;;;-0.55;100.00;99274.63;5023357;28;20222;-63
2021/12/26 10:55:30;;;;;;;21.03;15.23;;;;;;;-0.63;100.00;99271.47;5010146;28;20174;-62
2021/12/26 10:57:57;;;;;;;23.10;14.17;;;;;;;-0.61;100.00;99273.94;5010292;28;20743;-63
2021/12/26 11:00:26;;;;;;;18.67;13.30;;;;;;;-0.73;100.00;99272.50;5003195;28;20724;-64
2021/12/26 11:03:06;;;;;;;18.70;14.97;;;;;;;-0.69;100.00;99262.31;5022537;28;20217;-64
2021/12/26 11:05:36;;;;;;;20.03;16.03;;;;;;;-0.52;100.00;99269.53;5010443;28;20789;-62
2021/12/26 11:08:04;;;;;;;20.17;15.23;;;;;;;-0.36;100.00;99266.63;5010291;28;20206;-62
2021/12/26 11:10:34;;;;;;;17.93;14.63;;;;;;;-0.31;100.00;99262.34;5004452;28;20287;-63
2021/12/26 11:13:02;;;;;;;19.43;15.53;;;;;;;-0.37;100.00;99254.91;5009008;28;20214;-64
2021/12/26 11:15:34;;;;;;;19.73;15.43;;;;;;;-0.45;100.00;99262.63;5009276;28;20183;-62
2021/12/26 11:18:03;;;;;;;18.47;14.93;;;;;;;-0.60;100.00;99263.81;5010574;28;20194;-63